Haicheng, China
Current Conditions -  °F | °C
As of 12:30 PM on Sunday 21 Dec 2014 (Local Time) from ZYTX Reporting Station
Clear Clear  
Wind Chill: -18°   Ceiling: Unl
Heat Index: -11°   Visibility: 5mi
Dew Point: -18°   Wind: 9mph
Humidity: 57%   Direction: 190°S
Pressure: 30.18"   Gusts: NA
Location:  40.86°N, 122.74°E
Report Text: ZYTX 210430Z 19004MPS 160V220 8000 NSC M11/M18 Q1022 NOSIG
Loading
Personal Weather Stations






























Interactive Weather Map New forecast layout! Learn more

10-Day Weather Forecast

Advertisements
Track Severe Weather on mobile